Time;durP1;ratioP1;P1;durP2;ratioP2;P2;SDS_P1;SDS_P2;PMS_P1;PMS_P2;Temp;Humidity;BMP_temperature;BMP_pressure;BME280_temperature;BME280_humidity;BME280_pressure;Samples;Min_cycle;Max_cycle;Signal;HPM_P1;HPM_P2
2021/12/31 00:00:48;;;;;;;10.50;6.60;;;10.60;99.90;;;;;;5014142;28;20026;-78
2021/12/31 00:03:16;;;;;;;9.90;6.78;;;10.70;99.90;;;;;;5015219;28;20022;-79
2021/12/31 00:05:42;;;;;;;9.02;6.75;;;10.60;99.90;;;;;;5014395;28;20491;-78
2021/12/31 00:08:08;;;;;;;8.93;6.38;;;10.70;99.90;;;;;;5014904;28;20029;-80
2021/12/31 00:10:34;;;;;;;10.57;6.70;;;10.70;99.90;;;;;;5015309;28;20022;-79
2021/12/31 00:12:59;;;;;;;9.15;6.38;;;10.60;99.90;;;;;;5014505;28;20068;-79
2021/12/31 00:15:25;;;;;;;9.32;6.50;;;10.60;99.90;;;;;;5014661;28;20095;-79
2021/12/31 00:17:50;;;;;;;9.70;6.20;;;10.60;99.90;;;;;;5014061;28;20095;-78
2021/12/31 00:20:20;;;;;;;10.15;6.45;;;10.70;99.90;;;;;;5014538;28;20022;-79
2021/12/31 00:25:31;;;;;;;8.25;6.03;;;10.70;99.90;;;;;;5015123;28;20052;-78
2021/12/31 00:27:56;;;;;;;9.15;6.03;;;10.60;99.90;;;;;;5013426;28;20041;-78
2021/12/31 00:30:23;;;;;;;8.43;5.72;;;10.60;99.90;;;;;;5013301;28;20041;-79
2021/12/31 00:32:49;;;;;;;9.85;6.10;;;10.70;99.90;;;;;;5014381;28;20026;-78
2021/12/31 00:35:15;;;;;;;8.88;5.80;;;10.70;99.90;;;;;;5013366;28;20414;-78
2021/12/31 00:37:41;;;;;;;8.82;5.85;;;10.70;99.90;;;;;;5013176;28;20025;-79
2021/12/31 00:40:10;;;;;;;8.20;5.32;;;10.70;99.90;;;;;;5013328;28;20033;-78
2021/12/31 00:42:37;;;;;;;8.32;5.75;;;10.70;99.90;;;;;;5012352;28;20499;-79
2021/12/31 00:45:04;;;;;;;8.20;5.57;;;10.70;99.90;;;;;;5014115;28;20080;-78
2021/12/31 00:47:30;;;;;;;8.35;5.18;;;10.70;99.90;;;;;;5037285;22;20054;-77
2021/12/31 00:49:55;;;;;;;8.23;5.63;;;10.70;99.90;;;;;;5014944;28;20040;-79
2021/12/31 00:52:21;;;;;;;7.70;5.00;;;10.70;99.90;;;;;;5014315;28;20411;-79
2021/12/31 00:54:47;;;;;;;9.07;5.25;;;10.70;99.90;;;;;;5014628;28;20029;-79
2021/12/31 00:57:12;;;;;;;8.02;5.05;;;10.70;99.90;;;;;;5014411;28;20025;-79
2021/12/31 00:59:38;;;;;;;8.25;5.50;;;10.70;99.90;;;;;;5014345;28;20024;-79
2021/12/31 01:02:05;;;;;;;8.15;5.20;;;10.70;99.90;;;;;;5011731;28;20352;-78
2021/12/31 01:04:31;;;;;;;7.30;5.00;;;10.70;99.90;;;;;;5014136;28;20037;-79
2021/12/31 01:06:58;;;;;;;8.38;5.25;;;10.70;99.90;;;;;;5014535;28;20026;-78
2021/12/31 01:09:25;;;;;;;7.20;5.00;;;10.70;99.90;;;;;;5015923;28;20026;-80
2021/12/31 01:11:51;;;;;;;8.43;4.95;;;10.70;99.90;;;;;;5015651;28;20093;-78
2021/12/31 01:17:11;;;;;;;7.65;5.53;;;10.70;99.90;;;;;;5010795;28;20037;-79
2021/12/31 01:19:48;;;;;;;9.60;5.47;;;10.70;99.90;;;;;;5014685;28;20037;-79
2021/12/31 01:22:27;;;;;;;8.40;5.55;;;10.70;99.90;;;;;;5015055;28;20026;-79
2021/12/31 01:24:53;;;;;;;8.55;5.97;;;10.70;99.90;;;;;;5015802;28;20022;-79
2021/12/31 01:27:18;;;;;;;8.18;5.68;;;10.70;99.90;;;;;;5014810;28;20032;-79
2021/12/31 01:29:44;;;;;;;8.55;5.40;;;10.70;99.90;;;;;;5014994;28;20036;-79
2021/12/31 01:32:10;;;;;;;7.78;5.32;;;10.70;99.90;;;;;;5013918;28;20030;-79
2021/12/31 01:34:37;;;;;;;7.78;6.13;;;10.70;99.90;;;;;;5014418;28;20037;-79
2021/12/31 01:37:03;;;;;;;9.38;6.30;;;10.70;99.90;;;;;;5015277;28;20030;-79
2021/12/31 01:39:29;;;;;;;8.18;6.07;;;10.70;99.90;;;;;;5014674;28;20086;-79
2021/12/31 01:41:57;;;;;;;9.20;6.07;;;10.70;99.90;;;;;;5014481;28;20053;-79
2021/12/31 01:44:27;;;;;;;9.77;6.70;;;10.70;99.90;;;;;;5014825;28;20022;-77
2021/12/31 01:46:58;;;;;;;8.80;5.93;;;10.70;99.90;;;;;;5016252;28;20101;-79
2021/12/31 01:49:33;;;;;;;8.10;6.22;;;10.70;99.90;;;;;;5014511;28;20651;-79
2021/12/31 01:51:59;;;;;;;9.48;6.18;;;10.70;99.90;;;;;;5014435;28;20038;-79
2021/12/31 01:54:25;;;;;;;8.82;6.45;;;10.70;99.90;;;;;;5014238;28;20089;-79
2021/12/31 01:56:53;;;;;;;8.60;6.50;;;10.70;99.90;;;;;;5014284;28;20022;-80
2021/12/31 01:59:19;;;;;;;8.95;6.55;;;10.70;99.90;;;;;;5013728;28;20018;-80
2021/12/31 02:01:46;;;;;;;9.82;6.68;;;10.70;99.90;;;;;;5013375;28;20018;-80
2021/12/31 02:04:11;;;;;;;9.52;6.88;;;10.80;99.90;;;;;;5014217;28;20068;-79
2021/12/31 02:06:37;;;;;;;10.05;6.85;;;10.70;99.90;;;;;;5013801;28;20025;-80
2021/12/31 02:09:05;;;;;;;11.23;7.10;;;10.70;99.90;;;;;;5013808;28;20053;-80
2021/12/31 02:11:31;;;;;;;9.10;7.10;;;10.70;99.90;;;;;;5013724;28;20426;-78
2021/12/31 02:13:57;;;;;;;11.07;7.53;;;10.70;99.90;;;;;;5014554;28;20025;-80
2021/12/31 02:16:23;;;;;;;10.13;7.15;;;10.70;99.90;;;;;;5017797;28;20049;-80
2021/12/31 02:18:49;;;;;;;10.20;7.55;;;10.70;99.90;;;;;;5016999;28;20018;-80
2021/12/31 02:21:15;;;;;;;10.82;6.78;;;10.70;99.90;;;;;;5017066;28;20104;-79
2021/12/31 02:23:48;;;;;;;11.07;7.53;;;10.70;99.90;;;;;;5016772;28;20022;-79
2021/12/31 02:26:14;;;;;;;10.43;6.65;;;10.70;99.90;;;;;;5017878;28;20056;-79
2021/12/31 02:28:40;;;;;;;9.27;6.97;;;10.70;99.90;;;;;;5017597;28;20390;-80
2021/12/31 02:31:06;;;;;;;8.30;6.47;;;10.70;99.90;;;;;;5017503;28;20026;-80
2021/12/31 02:33:33;;;;;;;9.73;6.53;;;10.70;99.90;;;;;;5017129;28;20022;-80
2021/12/31 02:36:01;;;;;;;10.48;6.75;;;10.70;99.90;;;;;;5019367;28;20041;-80
2021/12/31 02:38:27;;;;;;;11.05;6.90;;;10.70;99.90;;;;;;5017738;28;20022;-80
2021/12/31 02:40:52;;;;;;;9.23;7.00;;;10.70;99.90;;;;;;5017642;28;20032;-80
2021/12/31 02:43:18;;;;;;;9.55;6.45;;;10.70;99.90;;;;;;5018409;28;20014;-78
2021/12/31 02:45:44;;;;;;;10.20;6.70;;;10.70;99.90;;;;;;5017820;28;20105;-79
2021/12/31 02:48:09;;;;;;;10.55;6.82;;;10.70;99.90;;;;;;5017305;28;20026;-80
2021/12/31 02:50:39;;;;;;;10.35;6.57;;;10.70;99.90;;;;;;5017410;28;20076;-79
2021/12/31 02:53:15;;;;;;;9.50;6.22;;;10.70;99.90;;;;;;5017442;28;20018;-80
2021/12/31 02:55:43;;;;;;;9.90;6.75;;;10.70;99.90;;;;;;5017567;28;20088;-80
2021/12/31 02:58:09;;;;;;;8.27;5.85;;;10.70;99.90;;;;;;5019274;28;20014;-80
2021/12/31 03:00:39;;;;;;;10.35;6.38;;;10.70;99.90;;;;;;5017147;28;20052;-80
2021/12/31 03:03:07;;;;;;;9.23;6.40;;;10.70;99.90;;;;;;5016961;28;20018;-80
2021/12/31 03:05:35;;;;;;;9.35;6.95;;;10.70;99.90;;;;;;5017702;28;20022;-79
2021/12/31 03:08:03;;;;;;;9.20;6.50;;;10.70;99.90;;;;;;5018062;28;20030;-80
2021/12/31 03:10:30;;;;;;;11.05;6.20;;;10.70;99.90;;;;;;5018842;28;20022;-80
2021/12/31 03:12:56;;;;;;;9.20;5.80;;;10.60;99.90;;;;;;5016696;28;20025;-80
2021/12/31 03:15:24;;;;;;;11.63;6.03;;;10.70;99.90;;;;;;5015619;28;20072;-78
2021/12/31 03:17:50;;;;;;;9.55;5.97;;;10.70;99.90;;;;;;5013989;28;20041;-79
2021/12/31 03:20:25;;;;;;;10.02;6.28;;;10.70;99.90;;;;;;5016657;28;20049;-80
2021/12/31 03:22:52;;;;;;;8.90;5.82;;;10.70;99.90;;;;;;5017622;28;20367;-80
2021/12/31 03:25:17;;;;;;;9.07;6.00;;;10.70;99.90;;;;;;5017590;28;20052;-80
2021/12/31 03:27:43;;;;;;;10.55;6.15;;;10.70;99.90;;;;;;5018178;28;20021;-80
2021/12/31 03:30:10;;;;;;;9.15;5.68;;;10.70;99.90;;;;;;5033852;28;20467;-80
2021/12/31 03:32:36;;;;;;;8.57;5.53;;;10.70;99.90;;;;;;5032687;28;20018;-80
2021/12/31 03:35:02;;;;;;;9.25;5.25;;;10.70;99.90;;;;;;5032858;28;20565;-79
2021/12/31 03:37:28;;;;;;;10.30;5.32;;;10.70;99.90;;;;;;5032366;28;20084;-79
2021/12/31 03:39:53;;;;;;;10.63;5.70;;;10.80;99.90;;;;;;5032478;28;20113;-79
2021/12/31 03:42:19;;;;;;;9.00;5.28;;;10.70;99.90;;;;;;5031793;28;20076;-80
2021/12/31 03:44:46;;;;;;;9.63;5.30;;;10.70;99.90;;;;;;5032169;28;20479;-80
2021/12/31 03:47:12;;;;;;;7.60;4.80;;;10.80;99.90;;;;;;5031798;28;20021;-79
2021/12/31 03:49:38;;;;;;;8.85;5.40;;;10.80;99.90;;;;;;5031771;28;20028;-80
2021/12/31 03:52:03;;;;;;;9.68;5.00;;;10.70;99.90;;;;;;5031641;28;20022;-80
2021/12/31 03:54:29;;;;;;;9.40;4.95;;;10.70;99.90;;;;;;5032150;28;20072;-80
2021/12/31 03:56:55;;;;;;;8.30;4.90;;;10.80;99.90;;;;;;5032769;28;20109;-80
2021/12/31 03:59:21;;;;;;;8.82;4.60;;;10.80;99.90;;;;;;5032134;28;20540;-79
2021/12/31 04:01:46;;;;;;;8.55;4.50;;;10.70;99.90;;;;;;5032233;28;20487;-79
2021/12/31 04:04:13;;;;;;;8.45;4.68;;;10.70;99.90;;;;;;5031849;28;20026;-80
2021/12/31 04:06:39;;;;;;;8.88;4.55;;;10.80;99.90;;;;;;5016540;28;20049;-80
2021/12/31 04:09:04;;;;;;;6.68;4.18;;;10.80;99.90;;;;;;5031411;28;20021;-81
2021/12/31 04:11:30;;;;;;;7.70;4.85;;;10.80;99.90;;;;;;5031830;28;20025;-80
2021/12/31 04:13:55;;;;;;;8.85;4.70;;;10.80;99.90;;;;;;5031333;28;20026;-80
2021/12/31 04:16:21;;;;;;;9.45;4.50;;;10.80;99.90;;;;;;5031741;28;20069;-80
2021/12/31 04:18:46;;;;;;;8.02;4.50;;;10.80;99.90;;;;;;5031460;28;20068;-80
2021/12/31 04:21:16;;;;;;;7.10;4.10;;;10.80;99.90;;;;;;5031983;28;20467;-80
2021/12/31 04:24:04;;;;;;;7.60;4.50;;;10.80;99.90;;;;;;5031351;28;20085;-79
2021/12/31 04:26:30;;;;;;;7.15;4.32;;;10.80;99.90;;;;;;5031743;28;20022;-79
2021/12/31 04:28:56;;;;;;;6.65;3.95;;;10.80;99.90;;;;;;5032005;28;20643;-79
2021/12/31 04:31:22;;;;;;;7.90;4.10;;;10.80;99.90;;;;;;5031381;28;20024;-80
2021/12/31 04:33:47;;;;;;;8.02;4.05;;;10.80;99.90;;;;;;5031052;28;20471;-79
2021/12/31 04:36:13;;;;;;;6.82;3.97;;;10.90;99.90;;;;;;5031790;28;20033;-80
2021/12/31 04:38:38;;;;;;;7.13;3.78;;;10.90;99.90;;;;;;5030194;28;20030;-80
2021/12/31 04:41:04;;;;;;;7.05;3.50;;;10.80;99.90;;;;;;5031237;28;20018;-80
2021/12/31 04:43:29;;;;;;;9.38;3.38;;;10.90;99.90;;;;;;5016092;28;20076;-80
2021/12/31 04:45:55;;;;;;;7.30;3.72;;;10.90;99.90;;;;;;5031418;28;20021;-80
2021/12/31 04:48:21;;;;;;;7.47;3.55;;;10.90;99.90;;;;;;5031383;28;20026;-79
2021/12/31 04:50:46;;;;;;;7.93;3.28;;;10.90;99.90;;;;;;5031079;28;20471;-80
2021/12/31 04:53:12;;;;;;;8.50;3.58;;;10.90;99.90;;;;;;5031050;28;20033;-79
2021/12/31 04:55:37;;;;;;;6.05;3.10;;;10.90;99.90;;;;;;5030928;28;20022;-80
2021/12/31 04:58:03;;;;;;;6.20;3.40;;;10.90;99.90;;;;;;5031897;28;20017;-80
2021/12/31 05:00:29;;;;;;;6.25;3.22;;;10.90;99.90;;;;;;5031257;28;20033;-79
2021/12/31 05:02:55;;;;;;;7.57;3.30;;;11.00;99.90;;;;;;5030978;28;20116;-78
2021/12/31 05:05:21;;;;;;;7.57;3.08;;;10.90;99.90;;;;;;5030990;28;20041;-80
2021/12/31 05:07:46;;;;;;;5.60;2.80;;;10.90;99.90;;;;;;5031031;28;20022;-80
2021/12/31 05:10:14;;;;;;;5.85;3.08;;;10.90;99.90;;;;;;5031633;28;20112;-80
2021/12/31 05:12:40;;;;;;;6.05;2.85;;;10.90;99.90;;;;;;5031034;28;20058;-80
2021/12/31 05:15:09;;;;;;;7.65;3.35;;;10.90;99.90;;;;;;5015693;28;20521;-80
2021/12/31 05:17:36;;;;;;;6.45;2.95;;;10.90;99.90;;;;;;5005322;28;20109;-80
2021/12/31 05:20:03;;;;;;;6.03;2.75;;;10.90;99.90;;;;;;5014545;28;20022;-80
2021/12/31 05:22:29;;;;;;;6.53;2.70;;;10.90;99.90;;;;;;5014127;28;20022;-80
2021/12/31 05:24:54;;;;;;;6.13;2.70;;;10.90;99.90;;;;;;5013960;28;20017;-80
2021/12/31 05:27:20;;;;;;;5.35;2.70;;;10.90;99.90;;;;;;5014488;28;20036;-80
2021/12/31 05:29:45;;;;;;;5.45;2.67;;;10.90;99.90;;;;;;5014505;28;20068;-78
2021/12/31 05:32:11;;;;;;;5.97;2.60;;;10.90;99.90;;;;;;5031058;28;20018;-80
2021/12/31 05:34:36;;;;;;;5.88;2.90;;;10.90;99.90;;;;;;5031302;28;20159;-79
2021/12/31 05:37:02;;;;;;;5.38;2.53;;;10.90;99.90;;;;;;5030716;28;20133;-80
2021/12/31 05:39:28;;;;;;;5.95;2.67;;;10.90;99.90;;;;;;5030993;28;20049;-80
2021/12/31 05:41:54;;;;;;;6.20;2.85;;;10.80;99.90;;;;;;5030392;28;20022;-79
2021/12/31 05:44:21;;;;;;;6.53;2.92;;;10.80;99.90;;;;;;5030710;28;20034;-80
2021/12/31 05:46:49;;;;;;;5.80;2.80;;;10.80;99.90;;;;;;5015392;28;20026;-79
2021/12/31 05:49:15;;;;;;;7.05;3.00;;;10.80;99.90;;;;;;5032148;28;20034;-80
2021/12/31 05:51:40;;;;;;;7.43;2.90;;;10.80;99.90;;;;;;5034383;28;20079;-78
2021/12/31 05:54:06;;;;;;;7.35;2.88;;;10.80;99.90;;;;;;5034276;28;20471;-79
2021/12/31 05:56:32;;;;;;;6.50;2.58;;;10.80;99.90;;;;;;5034611;28;20426;-78
2021/12/31 05:58:57;;;;;;;5.38;3.00;;;10.80;99.90;;;;;;5034536;28;20025;-80
2021/12/31 06:01:23;;;;;;;6.10;2.95;;;10.80;99.90;;;;;;5035054;28;20018;-80
2021/12/31 06:03:48;;;;;;;5.60;2.72;;;10.80;99.90;;;;;;5034398;28;20028;-80
2021/12/31 06:06:14;;;;;;;6.97;2.50;;;10.80;99.90;;;;;;5034837;28;20022;-80
2021/12/31 06:08:39;;;;;;;6.30;2.70;;;10.80;99.90;;;;;;5034233;28;20089;-79
2021/12/31 06:11:05;;;;;;;6.35;2.60;;;10.80;99.90;;;;;;5019061;28;20010;-80
2021/12/31 06:13:30;;;;;;;6.47;2.80;;;10.80;99.90;;;;;;5033890;28;20022;-79
2021/12/31 06:15:58;;;;;;;6.35;2.72;;;10.80;99.90;;;;;;5034041;28;20017;-80
2021/12/31 06:18:25;;;;;;;5.82;2.47;;;10.80;99.90;;;;;;5033681;28;20022;-80
2021/12/31 06:20:51;;;;;;;6.05;2.80;;;10.80;99.90;;;;;;5033838;28;20018;-80
2021/12/31 06:23:16;;;;;;;6.40;2.50;;;10.80;99.90;;;;;;5034203;28;20018;-79
2021/12/31 06:25:43;;;;;;;5.07;2.47;;;10.80;99.90;;;;;;5033926;28;20030;-80
2021/12/31 06:28:09;;;;;;;5.72;2.60;;;10.80;99.90;;;;;;5018662;28;20113;-80
2021/12/31 06:30:34;;;;;;;5.25;2.58;;;10.80;99.90;;;;;;5034311;28;20084;-80
2021/12/31 06:33:00;;;;;;;5.85;2.55;;;10.80;99.90;;;;;;5034239;28;20033;-80
2021/12/31 06:35:26;;;;;;;5.40;2.72;;;10.80;99.90;;;;;;5034257;28;20037;-79
2021/12/31 06:37:53;;;;;;;4.25;2.55;;;10.80;99.90;;;;;;5032218;28;20045;-79
2021/12/31 06:40:18;;;;;;;6.07;2.78;;;10.80;99.90;;;;;;5031614;28;20026;-80
2021/12/31 06:42:44;;;;;;;6.82;2.72;;;10.80;99.90;;;;;;5030148;28;20487;-80
2021/12/31 06:45:10;;;;;;;6.72;2.92;;;10.80;99.90;;;;;;5012547;28;20034;-80
2021/12/31 06:47:35;;;;;;;5.82;2.70;;;10.80;99.90;;;;;;5015703;28;20033;-79
2021/12/31 06:50:01;;;;;;;7.40;2.67;;;10.80;99.90;;;;;;5016154;28;20471;-80
2021/12/31 06:52:27;;;;;;;6.32;2.65;;;10.70;99.90;;;;;;5016478;28;20522;-78
2021/12/31 06:54:52;;;;;;;6.53;2.92;;;10.80;99.90;;;;;;5015343;28;20030;-79
2021/12/31 06:57:18;;;;;;;5.63;2.60;;;10.80;99.90;;;;;;5015806;28;20029;-79
2021/12/31 06:59:44;;;;;;;5.47;2.75;;;10.80;99.90;;;;;;5015399;28;20026;-79
2021/12/31 07:02:09;;;;;;;4.90;2.60;;;10.80;99.90;;;;;;5014789;28;20030;-78
2021/12/31 07:04:35;;;;;;;7.40;2.63;;;10.80;99.90;;;;;;5014959;28;20041;-79
2021/12/31 07:07:00;;;;;;;7.00;2.60;;;10.80;99.90;;;;;;5015391;28;20398;-79
2021/12/31 07:09:26;;;;;;;6.25;2.55;;;10.80;99.90;;;;;;5014921;28;20031;-78
2021/12/31 07:11:51;;;;;;;6.40;2.70;;;10.80;99.90;;;;;;5014562;28;20474;-79
2021/12/31 07:14:17;;;;;;;7.15;2.88;;;10.80;99.90;;;;;;5014962;28;20022;-78
2021/12/31 07:16:42;;;;;;;7.45;2.90;;;10.90;99.90;;;;;;5014492;28;20121;-80
2021/12/31 07:19:08;;;;;;;6.38;2.63;;;10.80;99.90;;;;;;5014216;28;20049;-77
2021/12/31 07:21:34;;;;;;;5.60;2.55;;;10.80;99.90;;;;;;5015130;28;20032;-79
2021/12/31 07:23:59;;;;;;;6.68;2.85;;;10.80;99.90;;;;;;5014300;28;20018;-78
2021/12/31 07:26:25;;;;;;;7.40;2.88;;;10.80;99.90;;;;;;5014457;28;20483;-78
2021/12/31 07:28:50;;;;;;;5.55;2.60;;;10.80;99.90;;;;;;5013437;28;20149;-79
2021/12/31 07:31:16;;;;;;;6.22;2.75;;;10.80;99.90;;;;;;5013750;28;20026;-79
2021/12/31 07:33:42;;;;;;;6.47;2.80;;;10.80;99.90;;;;;;5013184;28;20076;-80
2021/12/31 07:36:08;;;;;;;5.32;2.75;;;10.80;99.90;;;;;;5014719;28;20030;-79
2021/12/31 07:38:40;;;;;;;7.15;3.00;;;10.80;99.90;;;;;;5013384;28;20045;-79
2021/12/31 07:41:05;;;;;;;6.55;3.10;;;10.80;99.90;;;;;;5014725;28;20022;-78
2021/12/31 07:43:31;;;;;;;5.53;2.60;;;10.80;99.90;;;;;;5014527;28;20033;-80
2021/12/31 07:45:57;;;;;;;6.57;3.00;;;10.80;99.90;;;;;;5014582;28;20033;-81
2021/12/31 07:48:23;;;;;;;5.05;2.83;;;10.80;99.90;;;;;;5014370;28;20065;-80
2021/12/31 07:50:50;;;;;;;8.48;2.95;;;10.80;99.90;;;;;;5014493;28;20109;-81
2021/12/31 07:53:15;;;;;;;7.30;3.13;;;10.90;99.90;;;;;;5013516;28;20029;-79
2021/12/31 07:55:41;;;;;;;6.22;2.88;;;10.90;99.90;;;;;;5014274;28;20549;-79
2021/12/31 07:58:07;;;;;;;7.13;2.65;;;10.90;99.90;;;;;;5012784;28;20021;-79
2021/12/31 08:00:34;;;;;;;8.52;3.17;;;10.80;99.90;;;;;;5012966;28;20026;-80
2021/12/31 08:03:00;;;;;;;6.13;2.38;;;10.80;99.90;;;;;;5012943;28;20022;-80
2021/12/31 08:05:27;;;;;;;5.43;2.65;;;10.90;99.90;;;;;;5013210;28;20030;-79
2021/12/31 08:07:54;;;;;;;7.57;2.92;;;10.90;99.90;;;;;;5014337;28;20164;-79
2021/12/31 08:10:19;;;;;;;6.10;2.75;;;11.00;99.90;;;;;;5010347;28;20374;-79
2021/12/31 08:12:46;;;;;;;8.88;2.95;;;11.00;99.90;;;;;;4998471;28;20579;-80
2021/12/31 08:15:12;;;;;;;6.70;2.72;;;11.00;99.90;;;;;;4994897;28;20027;-78
2021/12/31 08:17:38;;;;;;;6.28;2.63;;;11.10;99.90;;;;;;4993530;28;20050;-80
2021/12/31 08:20:05;;;;;;;8.63;3.00;;;11.00;99.90;;;;;;4993155;28;20023;-80
2021/12/31 08:22:31;;;;;;;6.50;2.50;;;11.00;99.90;;;;;;4992898;28;20034;-80
2021/12/31 08:24:56;;;;;;;7.07;2.83;;;11.00;99.90;;;;;;4994224;28;20022;-79
2021/12/31 08:27:22;;;;;;;5.78;2.65;;;11.00;99.90;;;;;;4992442;28;20336;-81
2021/12/31 08:29:48;;;;;;;6.70;3.00;;;11.00;99.90;;;;;;4991174;28;20526;-78
2021/12/31 08:32:13;;;;;;;5.82;2.53;;;11.00;99.90;;;;;;4989405;28;20095;-79
2021/12/31 08:34:39;;;;;;;6.95;2.80;;;11.00;99.90;;;;;;4989384;28;20034;-77
2021/12/31 08:37:05;;;;;;;6.78;2.88;;;11.00;99.90;;;;;;4989772;28;20073;-78
2021/12/31 08:39:30;;;;;;;5.03;2.72;;;10.90;99.90;;;;;;4989507;28;20030;-77
2021/12/31 08:41:56;;;;;;;6.32;3.00;;;11.00;99.90;;;;;;4989225;28;20495;-77
2021/12/31 08:44:22;;;;;;;8.18;3.28;;;11.00;99.90;;;;;;4989325;28;20353;-78
2021/12/31 08:46:48;;;;;;;7.55;3.10;;;11.00;99.90;;;;;;4990644;28;20026;-78
2021/12/31 08:49:14;;;;;;;5.65;3.00;;;11.00;99.90;;;;;;4988867;28;20038;-80
2021/12/31 08:51:40;;;;;;;7.93;2.92;;;11.00;99.90;;;;;;4990312;28;20157;-77
2021/12/31 08:54:05;;;;;;;6.70;2.83;;;11.00;99.90;;;;;;4989102;28;20117;-78
2021/12/31 08:56:31;;;;;;;7.20;3.20;;;11.00;99.90;;;;;;4989414;28;20030;-78
2021/12/31 08:58:57;;;;;;;8.75;2.80;;;11.00;99.90;;;;;;4989138;28;20606;-79
2021/12/31 09:01:22;;;;;;;7.68;3.13;;;11.00;99.90;;;;;;4989223;28;20423;-79
2021/12/31 09:03:48;;;;;;;7.07;2.80;;;11.00;99.90;;;;;;4989019;28;20026;-80
2021/12/31 09:06:18;;;;;;;7.03;2.95;;;11.00;99.90;;;;;;4989234;28;20109;-79
2021/12/31 09:08:43;;;;;;;7.18;2.70;;;11.00;99.90;;;;;;4988714;28;20295;-77
2021/12/31 09:11:09;;;;;;;6.00;2.78;;;11.00;99.90;;;;;;4989058;28;20023;-79
2021/12/31 09:13:35;;;;;;;6.20;2.70;;;11.00;99.90;;;;;;4989881;28;20037;-79
2021/12/31 09:16:01;;;;;;;7.13;2.90;;;11.00;99.90;;;;;;5005639;22;20016;-77
2021/12/31 09:18:26;;;;;;;7.05;2.90;;;11.00;99.90;;;;;;5004613;28;20423;-75
2021/12/31 09:20:53;;;;;;;6.00;2.90;;;11.00;99.90;;;;;;5006975;28;20057;-76
2021/12/31 09:23:18;;;;;;;6.63;2.70;;;11.10;99.90;;;;;;5007861;28;20127;-77
2021/12/31 09:25:44;;;;;;;5.55;2.55;;;11.00;99.90;;;;;;5004586;28;20507;-75
2021/12/31 09:28:10;;;;;;;6.43;2.80;;;11.00;99.90;;;;;;5006656;28;20467;-76
2021/12/31 09:30:35;;;;;;;7.78;2.70;;;11.00;99.90;;;;;;5008117;28;20376;-76
2021/12/31 09:33:01;;;;;;;5.97;2.85;;;11.00;99.90;;;;;;5005630;28;20038;-76
2021/12/31 09:35:26;;;;;;;5.03;2.53;;;11.00;99.90;;;;;;5002437;28;20124;-77
2021/12/31 09:37:52;;;;;;;5.90;3.00;;;11.10;99.90;;;;;;5009189;28;20022;-75
2021/12/31 09:40:18;;;;;;;6.40;2.67;;;11.10;99.90;;;;;;5006315;28;20104;-75
2021/12/31 09:43:04;;;;;;;6.15;2.50;;;11.10;99.90;;;;;;5001748;28;20038;-78
2021/12/31 09:45:31;;;;;;;10.65;3.10;;;11.10;99.90;;;;;;5005297;28;20107;-75
2021/12/31 09:47:59;;;;;;;8.73;2.83;;;11.10;99.90;;;;;;5005117;28;20498;-75
2021/12/31 09:50:26;;;;;;;6.97;2.70;;;11.00;99.90;;;;;;5001850;28;20025;-75
2021/12/31 09:52:54;;;;;;;7.45;2.78;;;11.10;99.90;;;;;;5005924;28;20030;-75
2021/12/31 09:55:40;;;;;;;6.28;2.80;;;11.00;99.90;;;;;;5005909;28;20411;-75
2021/12/31 09:58:07;;;;;;;5.25;2.63;;;11.00;99.90;;;;;;5006359;28;20024;-76
2021/12/31 10:00:33;;;;;;;4.57;2.30;;;11.00;99.90;;;;;;5007050;28;20026;-75
2021/12/31 10:03:12;;;;;;;5.53;2.58;;;11.00;99.90;;;;;;5008555;28;20022;-77
2021/12/31 10:05:46;;;;;;;5.43;2.65;;;11.00;99.90;;;;;;5008437;28;20045;-76
2021/12/31 10:08:15;;;;;;;4.78;2.55;;;11.00;99.90;;;;;;5006677;28;20034;-76
2021/12/31 10:10:41;;;;;;;6.05;2.65;;;11.00;99.90;;;;;;5007297;28;20034;-76
2021/12/31 10:13:10;;;;;;;5.95;2.53;;;11.00;99.90;;;;;;5008220;28;20640;-76
2021/12/31 10:15:40;;;;;;;6.93;2.58;;;11.00;99.90;;;;;;5007028;28;20128;-76
2021/12/31 10:18:12;;;;;;;5.35;2.70;;;11.00;99.90;;;;;;5007115;28;20033;-76
2021/12/31 10:20:51;;;;;;;6.85;2.88;;;11.00;99.90;;;;;;5007976;28;20610;-76
2021/12/31 10:23:19;;;;;;;8.27;2.67;;;11.00;99.90;;;;;;5006254;28;20036;-76
2021/12/31 10:25:45;;;;;;;6.32;2.40;;;11.00;99.90;;;;;;5007931;28;20026;-76
2021/12/31 10:28:13;;;;;;;10.02;2.63;;;11.00;99.90;;;;;;5008234;28;20502;-76
2021/12/31 10:30:40;;;;;;;4.82;2.47;;;11.00;99.90;;;;;;5010608;28;20033;-75
2021/12/31 10:33:06;;;;;;;5.38;2.40;;;11.00;99.90;;;;;;5012997;28;20108;-77
2021/12/31 10:35:45;;;;;;;4.78;2.30;;;11.00;99.90;;;;;;5015992;28;20030;-76
2021/12/31 10:38:12;;;;;;;4.30;2.40;;;11.10;99.90;;;;;;5014912;28;20026;-76
2021/12/31 10:40:43;;;;;;;5.80;2.50;;;11.10;99.90;;;;;;5015571;28;20053;-75
2021/12/31 10:43:25;;;;;;;5.00;2.65;;;11.10;99.90;;;;;;5014691;28;20113;-76
2021/12/31 10:46:03;;;;;;;8.00;2.30;;;11.10;99.90;;;;;;5014989;28;20022;-76
2021/12/31 10:48:50;;;;;;;4.80;2.50;;;11.10;99.90;;;;;;5012280;28;20034;-76
2021/12/31 10:51:18;;;;;;;6.80;2.60;;;11.10;99.90;;;;;;5018851;28;20068;-76
2021/12/31 10:53:51;;;;;;;6.43;2.70;;;11.10;99.90;;;;;;4996875;28;20018;-76
2021/12/31 10:56:17;;;;;;;5.50;2.70;;;11.10;99.90;;;;;;4995508;28;20034;-76
2021/12/31 10:58:55;;;;;;;6.03;2.85;;;11.10;99.90;;;;;;5028141;28;20026;-76
2021/12/31 11:01:21;;;;;;;4.57;2.50;;;11.10;99.90;;;;;;4996386;28;20077;-76
2021/12/31 11:03:46;;;;;;;4.78;2.60;;;11.10;99.90;;;;;;4996497;28;20054;-76
2021/12/31 11:06:13;;;;;;;5.25;2.83;;;11.10;99.90;;;;;;4995404;28;20395;-76
2021/12/31 11:08:45;;;;;;;5.07;2.85;;;11.10;99.90;;;;;;4995011;28;20026;-77
2021/12/31 11:11:12;;;;;;;6.55;2.75;;;11.10;99.90;;;;;;4994938;28;20480;-76
2021/12/31 11:13:39;;;;;;;9.73;2.72;;;11.10;99.90;;;;;;4994676;28;20031;-76
2021/12/31 11:16:04;;;;;;;6.13;2.45;;;11.10;99.90;;;;;;4996675;28;20034;-76
2021/12/31 11:18:30;;;;;;;5.40;2.55;;;11.10;99.90;;;;;;4995313;28;20029;-77
2021/12/31 11:21:02;;;;;;;6.35;2.67;;;11.20;99.90;;;;;;4995418;28;20476;-77
2021/12/31 11:23:30;;;;;;;6.93;2.70;;;11.20;99.90;;;;;;4994899;28;20505;-78
2021/12/31 11:25:59;;;;;;;6.43;2.65;;;11.20;99.90;;;;;;4995134;28;20385;-77
2021/12/31 11:28:30;;;;;;;5.47;2.53;;;11.20;99.90;;;;;;5015339;22;20049;-76
2021/12/31 11:31:16;;;;;;;6.07;2.53;;;11.20;99.90;;;;;;5015173;28;20120;-76
2021/12/31 11:33:43;;;;;;;5.57;2.47;;;11.20;99.90;;;;;;5007992;28;20049;-76
2021/12/31 11:36:10;;;;;;;4.60;2.60;;;11.20;99.90;;;;;;5015178;28;20109;-76
2021/12/31 11:38:42;;;;;;;7.25;2.72;;;11.20;99.90;;;;;;5013787;28;20032;-76
2021/12/31 11:41:08;;;;;;;7.15;2.70;;;11.20;99.90;;;;;;5013643;28;20028;-77
2021/12/31 11:43:35;;;;;;;8.55;2.90;;;11.20;99.90;;;;;;5009688;28;20021;-76
2021/12/31 11:46:12;;;;;;;7.05;2.70;;;11.20;99.90;;;;;;5014063;28;20049;-77
2021/12/31 11:48:47;;;;;;;4.97;2.60;;;11.20;99.90;;;;;;5013065;28;20025;-76
2021/12/31 11:51:16;;;;;;;5.03;2.58;;;11.20;99.90;;;;;;5011109;28;20056;-76
2021/12/31 11:53:57;;;;;;;5.93;2.55;;;11.30;99.90;;;;;;4993215;28;20026;-78
2021/12/31 11:56:39;;;;;;;5.78;2.60;;;11.20;99.90;;;;;;4994748;28;20591;-78
2021/12/31 11:59:08;;;;;;;5.43;2.58;;;11.20;99.90;;;;;;4996189;28;20050;-77
2021/12/31 12:01:36;;;;;;;7.13;2.65;;;11.20;99.90;;;;;;4994865;28;20022;-79
2021/12/31 12:04:33;;;;;;;6.75;2.60;;;11.20;99.90;;;;;;4994283;28;20029;-77
2021/12/31 12:07:26;;;;;;;5.32;2.45;;;11.20;99.90;;;;;;4994923;28;20033;-79
2021/12/31 12:09:52;;;;;;;8.23;2.85;;;11.20;99.90;;;;;;4994779;28;20033;-77
2021/12/31 12:12:20;;;;;;;6.60;2.80;;;11.20;99.90;;;;;;4994547;28;20015;-76
2021/12/31 12:14:48;;;;;;;6.00;2.83;;;11.20;99.90;;;;;;4995540;28;20109;-76
2021/12/31 12:17:15;;;;;;;5.47;2.45;;;11.20;99.90;;;;;;4994224;28;20027;-76
2021/12/31 12:19:47;;;;;;;7.97;3.15;;;11.30;99.90;;;;;;4994599;28;20025;-76
2021/12/31 12:22:39;;;;;;;6.28;2.60;;;11.30;99.90;;;;;;4994201;28;20026;-76
2021/12/31 12:25:19;;;;;;;9.15;3.10;;;11.30;99.90;;;;;;4995394;28;20542;-76
2021/12/31 12:27:52;;;;;;;6.57;2.83;;;11.30;99.90;;;;;;4994046;28;20187;-76
2021/12/31 12:30:18;;;;;;;7.22;2.90;;;11.30;99.90;;;;;;4994094;28;20081;-78
2021/12/31 12:35:15;;;;;;;6.18;2.70;;;11.30;99.90;;;;;;4995284;28;20038;-76
2021/12/31 12:37:42;;;;;;;5.97;2.80;;;11.30;99.90;;;;;;4995590;28;20502;-76
2021/12/31 12:40:08;;;;;;;5.82;2.47;;;11.30;99.90;;;;;;4994111;28;20122;-76
2021/12/31 12:42:34;;;;;;;5.95;2.50;;;11.30;99.90;;;;;;4995181;28;20141;-78
2021/12/31 12:45:01;;;;;;;7.32;2.97;;;11.20;99.90;;;;;;4999510;28;20507;-76
2021/12/31 12:47:27;;;;;;;5.95;2.80;;;11.20;99.90;;;;;;5013406;28;20026;-77
2021/12/31 12:49:57;;;;;;;6.68;2.55;;;11.20;99.90;;;;;;5015002;28;20026;-77
2021/12/31 12:52:22;;;;;;;6.35;2.70;;;11.20;99.90;;;;;;5014440;28;20491;-76
2021/12/31 12:54:49;;;;;;;6.45;2.90;;;11.20;99.90;;;;;;5014462;28;20022;-76